KGNT/GNT METAR and TAF weather

Enter ICAO airport designator
Station Type Date Time Source
KGNT METAR 2021/05/15 00:55 UTC NOAA

KGNT 150055Z AUTO 29005KT 10SM SCT120 26/M13 A3004 RMK AO2 T02641135


Station Type Date Time Source
KGNT Decoded METAR 2021/05/15 00:55 UTC NOAA

GRANTS-MILAN MUNICIPAL AIRPORT , NM, United States (KGNT) 35-10N 107-54W 1987M
May 14, 2021 - 08:55 PM EDT / 2021.05.15 0055 UTC
Wind: from the WNW (290 degrees) at 6 MPH (5 KT):0
Visibility: 10 mile(s):0
Sky conditions: partly cloudy
Temperature: 79.5 F (26.4 C)
Dew Point: 7.7 F (-13.5 C)
Relative Humidity: 6%
Pressure (altimeter): 30.04 in. Hg (1017 hPa)
ob: KGNT 150055Z AUTO 29005KT 10SM SCT120 26/M13 A3004 RMK AO2 T02641135
cycle: 1

Station Type Date Time Source
KGNT TAF UTC NOAA

Error!

Example: see airport list